Time;durP1;ratioP1;P1;durP2;ratioP2;P2;SDS_P1;SDS_P2;PMS_P1;PMS_P2;Temp;Humidity;BMP_temperature;BMP_pressure;BME280_temperature;BME280_humidity;BME280_pressure;Samples;Min_cycle;Max_cycle;Signal;HPM_P1;HPM_P2
2020/12/16 00:00:14;;;;;;;19.10;5.67;;;2.10;99.90;;;;;;2065567;28;20186;-57
2020/12/16 00:01:18;;;;;;;24.87;4.80;;;2.10;99.90;;;;;;2059341;28;20563;-57
2020/12/16 00:02:21;;;;;;;7.80;4.10;;;2.00;99.90;;;;;;2062078;28;20665;-58
2020/12/16 00:03:21;;;;;;;24.98;7.45;;;2.00;99.90;;;;;;2065703;28;20182;-57
2020/12/16 00:04:22;;;;;;;32.30;8.23;;;2.00;99.90;;;;;;2065438;28;20197;-60
2020/12/16 00:05:23;;;;;;;54.60;10.70;;;2.00;99.90;;;;;;2062395;28;20206;-60
2020/12/16 00:06:23;;;;;;;25.10;5.97;;;2.00;99.90;;;;;;2062688;28;20270;-60
2020/12/16 00:07:24;;;;;;;42.97;7.00;;;2.00;99.90;;;;;;2063615;28;20222;-61
2020/12/16 00:08:24;;;;;;;53.03;8.00;;;2.00;99.90;;;;;;2062875;28;20178;-57
2020/12/16 00:09:25;;;;;;;78.43;11.33;;;1.90;99.90;;;;;;2065531;28;20178;-59
2020/12/16 00:10:26;;;;;;;45.33;10.07;;;1.90;99.90;;;;;;2061519;28;20557;-60
2020/12/16 00:11:26;;;;;;;54.30;9.00;;;2.00;99.90;;;;;;2057219;28;20190;-59
2020/12/16 00:12:29;;;;;;;25.30;6.00;;;2.00;99.90;;;;;;2062827;28;20185;-59
2020/12/16 00:13:30;;;;;;;40.40;6.82;;;2.00;99.90;;;;;;2061943;28;20725;-60
2020/12/16 00:14:30;;;;;;;6.60;3.50;;;1.90;99.90;;;;;;2063711;28;20214;-61
2020/12/16 00:15:31;;;;;;;29.07;5.17;;;1.90;99.90;;;;;;2065484;28;20205;-56
2020/12/16 00:16:32;;;;;;;71.20;9.60;;;1.80;99.90;;;;;;2065543;28;20192;-59
2020/12/16 00:17:34;;;;;;;48.10;7.68;;;1.80;99.90;;;;;;2065410;28;20186;-61
2020/12/16 00:18:35;;;;;;;71.78;12.77;;;1.70;99.90;;;;;;2065262;28;20674;-61
2020/12/16 00:19:36;;;;;;;41.17;7.57;;;1.70;99.90;;;;;;2065388;28;20182;-58
2020/12/16 00:20:37;;;;;;;21.00;6.33;;;1.80;99.90;;;;;;2065388;28;20545;-59
2020/12/16 00:21:37;;;;;;;44.90;8.63;;;1.80;99.90;;;;;;2057773;28;20183;-60
2020/12/16 00:22:39;;;;;;;91.37;14.23;;;1.70;99.90;;;;;;2064634;28;20182;-60
2020/12/16 00:23:40;;;;;;;42.85;9.00;;;1.80;99.90;;;;;;2065467;28;20603;-60
2020/12/16 00:24:41;;;;;;;62.03;9.73;;;1.80;99.90;;;;;;2065262;28;20210;-59
2020/12/16 00:25:42;;;;;;;90.83;15.50;;;1.80;99.90;;;;;;2065441;28;20190;-63
2020/12/16 00:26:44;;;;;;;118.70;13.63;;;1.90;99.90;;;;;;2056399;28;20203;-63
2020/12/16 00:27:45;;;;;;;50.70;10.02;;;1.90;99.90;;;;;;2056521;28;20722;-62
2020/12/16 00:28:45;;;;;;;36.97;7.70;;;2.00;99.90;;;;;;2065459;28;20202;-60
2020/12/16 00:29:46;;;;;;;18.50;6.43;;;1.80;99.90;;;;;;2065593;28;20631;-60
2020/12/16 00:30:47;;;;;;;7.40;4.90;;;1.70;99.90;;;;;;2065296;28;20186;-62
2020/12/16 00:31:48;;;;;;;9.50;5.90;;;1.70;99.90;;;;;;2065413;28;20206;-62
2020/12/16 00:32:49;;;;;;;13.87;7.00;;;1.70;99.90;;;;;;2065679;28;20650;-61
2020/12/16 00:33:49;;;;;;;11.93;6.33;;;1.80;99.90;;;;;;2065376;28;20185;-63
2020/12/16 00:34:50;;;;;;;19.97;7.57;;;1.80;99.90;;;;;;2065645;28;20189;-61
2020/12/16 00:35:51;;;;;;;14.23;6.10;;;1.80;99.90;;;;;;2065355;28;20282;-61
2020/12/16 00:36:51;;;;;;;15.03;4.83;;;1.80;99.90;;;;;;2065672;28;20602;-61
2020/12/16 00:37:52;;;;;;;8.50;3.93;;;1.80;99.90;;;;;;2065611;28;20246;-61
2020/12/16 00:38:53;;;;;;;12.17;5.60;;;1.80;99.90;;;;;;2065617;28;20206;-61
2020/12/16 00:39:54;;;;;;;9.43;5.27;;;1.80;99.90;;;;;;2065533;28;20206;-61
2020/12/16 00:40:55;;;;;;;33.67;8.93;;;1.70;99.90;;;;;;2065053;28;20218;-64
2020/12/16 00:41:55;;;;;;;19.65;7.70;;;1.80;99.90;;;;;;2065256;28;20425;-61
2020/12/16 00:42:56;;;;;;;16.57;6.60;;;1.70;99.90;;;;;;2065733;28;20206;-62
2020/12/16 00:43:57;;;;;;;9.87;5.90;;;1.80;99.90;;;;;;2065382;28;20182;-61
2020/12/16 00:44:57;;;;;;;17.50;6.70;;;1.80;99.90;;;;;;2065489;28;20206;-61
2020/12/16 00:45:58;;;;;;;8.10;4.47;;;1.80;99.90;;;;;;2065435;28;20773;-61
2020/12/16 00:47:00;;;;;;;10.13;4.90;;;1.80;99.90;;;;;;2065399;28;20185;-61
2020/12/16 00:48:00;;;;;;;10.38;4.70;;;1.80;99.90;;;;;;2065417;28;20179;-61
2020/12/16 00:49:01;;;;;;;19.90;6.50;;;1.80;99.90;;;;;;2065481;28;20216;-58
2020/12/16 00:50:05;;;;;;;15.23;5.80;;;1.80;99.90;;;;;;2065596;28;20186;-61
2020/12/16 00:51:06;;;;;;;22.02;5.75;;;1.80;99.90;;;;;;2065385;28;20189;-61
2020/12/16 00:52:07;;;;;;;20.90;5.50;;;1.90;99.90;;;;;;2065545;28;20561;-61
2020/12/16 00:53:07;;;;;;;15.67;4.33;;;1.90;99.90;;;;;;2065333;28;20737;-61
2020/12/16 00:54:08;;;;;;;10.47;4.40;;;1.80;99.90;;;;;;2065329;28;20282;-61
2020/12/16 00:55:09;;;;;;;23.13;5.97;;;1.80;99.90;;;;;;2065354;28;20646;-61
2020/12/16 00:56:09;;;;;;;27.00;6.70;;;1.80;99.90;;;;;;2065538;28;20209;-61
2020/12/16 00:57:10;;;;;;;48.30;7.70;;;1.80;99.90;;;;;;2065347;28;20190;-61
2020/12/16 00:58:11;;;;;;;22.75;5.22;;;1.80;99.90;;;;;;2065317;28;20182;-62
2020/12/16 00:59:12;;;;;;;26.40;4.97;;;1.80;99.90;;;;;;2065451;28;20221;-61
2020/12/16 01:00:16;;;;;;;16.45;4.95;;;1.80;99.90;;;;;;2065545;28;20425;-61
2020/12/16 01:01:16;;;;;;;20.88;5.57;;;1.80;99.90;;;;;;2064984;28;20182;-61
2020/12/16 01:02:17;;;;;;;23.53;5.80;;;1.80;99.90;;;;;;2065469;28;20182;-61
2020/12/16 01:03:18;;;;;;;60.90;9.93;;;1.80;99.90;;;;;;2065335;28;20617;-61
2020/12/16 01:04:18;;;;;;;34.30;6.93;;;1.80;99.90;;;;;;2065237;28;20289;-61
2020/12/16 01:05:20;;;;;;;33.33;7.80;;;1.80;99.90;;;;;;2065329;28;20284;-60
2020/12/16 01:06:21;;;;;;;56.88;6.22;;;1.90;99.90;;;;;;2065394;28;20177;-61
2020/12/16 01:07:22;;;;;;;45.33;7.20;;;1.80;99.90;;;;;;2065296;28;20189;-61
2020/12/16 01:08:22;;;;;;;24.70;5.60;;;1.80;99.90;;;;;;2065359;28;20224;-60
2020/12/16 01:09:23;;;;;;;39.97;6.73;;;1.80;99.90;;;;;;2065163;28;20178;-61
2020/12/16 01:10:24;;;;;;;22.67;5.33;;;1.80;99.90;;;;;;2065299;28;20183;-60
2020/12/16 01:11:25;;;;;;;73.20;9.77;;;1.80;99.90;;;;;;2065069;28;20269;-60
2020/12/16 01:12:25;;;;;;;30.10;6.87;;;1.80;99.90;;;;;;2065345;28;20174;-61
2020/12/16 01:13:26;;;;;;;26.17;6.20;;;1.80;99.90;;;;;;2065198;28;20179;-61
2020/12/16 01:14:27;;;;;;;10.30;4.50;;;1.80;99.90;;;;;;2065276;28;20193;-62
2020/12/16 01:15:28;;;;;;;10.13;4.33;;;1.80;99.90;;;;;;2065098;28;20233;-62
2020/12/16 01:16:36;;;;;;;7.30;5.03;;;1.70;99.90;;;;;;2065458;28;20693;-61
2020/12/16 01:17:42;;;;;;;14.65;6.13;;;1.70;99.90;;;;;;2065295;28;20245;-61
2020/12/16 01:18:43;;;;;;;9.18;5.20;;;1.70;99.90;;;;;;2065224;28;20174;-61
2020/12/16 01:19:44;;;;;;;21.47;6.83;;;1.70;99.90;;;;;;2065108;28;20661;-61
2020/12/16 01:20:44;;;;;;;9.60;4.27;;;1.70;99.90;;;;;;2064992;28;20241;-61
2020/12/16 01:21:45;;;;;;;7.43;4.40;;;1.80;99.90;;;;;;2065002;28;20178;-62
2020/12/16 01:22:48;;;;;;;6.40;4.43;;;1.80;99.90;;;;;;2065149;28;20182;-60
2020/12/16 01:23:48;;;;;;;6.40;4.25;;;1.80;99.90;;;;;;2064890;28;20685;-61
2020/12/16 01:24:49;;;;;;;3.77;2.97;;;1.70;99.90;;;;;;2064396;28;20241;-61
2020/12/16 01:25:50;;;;;;;5.53;3.60;;;1.70;99.90;;;;;;2065046;28;20188;-61
2020/12/16 01:26:51;;;;;;;5.20;3.33;;;1.70;99.90;;;;;;2091112;22;20617;-67
2020/12/16 01:27:59;;;;;;;5.13;3.92;;;1.70;99.90;;;;;;2081057;28;20645;-67
2020/12/16 01:29:00;;;;;;;4.85;3.63;;;1.70;99.90;;;;;;2080518;28;20177;-67
2020/12/16 01:30:03;;;;;;;5.17;3.60;;;1.70;99.90;;;;;;2080827;28;20173;-67
2020/12/16 01:31:03;;;;;;;4.18;3.28;;;1.70;99.90;;;;;;2080653;28;20177;-69
2020/12/16 01:32:04;;;;;;;6.13;4.40;;;1.70;99.90;;;;;;2080708;28;20181;-67
2020/12/16 01:33:05;;;;;;;4.23;3.27;;;1.70;99.90;;;;;;2081130;28;20197;-68
2020/12/16 01:34:06;;;;;;;6.53;4.43;;;1.70;99.90;;;;;;2081470;28;20205;-68
2020/12/16 01:35:08;;;;;;;5.15;3.80;;;1.60;99.90;;;;;;2080754;28;20185;-67
2020/12/16 01:36:10;;;;;;;4.80;3.60;;;1.60;99.90;;;;;;2080749;28;20253;-67
2020/12/16 01:37:11;;;;;;;5.00;3.90;;;1.60;99.90;;;;;;2080560;28;20235;-67
2020/12/16 01:38:12;;;;;;;6.60;4.50;;;1.60;99.90;;;;;;2081420;28;20193;-67
2020/12/16 01:39:14;;;;;;;7.40;4.20;;;1.70;99.90;;;;;;2081393;28;20216;-67
2020/12/16 01:40:15;;;;;;;6.10;4.18;;;1.60;99.90;;;;;;2081469;28;20553;-67
2020/12/16 01:41:16;;;;;;;5.75;4.18;;;1.60;99.90;;;;;;2081252;28;20193;-68
2020/12/16 01:42:17;;;;;;;5.87;4.03;;;1.60;99.90;;;;;;2081348;28;20204;-67
2020/12/16 01:43:17;;;;;;;6.87;4.27;;;1.60;99.90;;;;;;2081430;28;20181;-67
2020/12/16 01:44:22;;;;;;;3.70;3.00;;;1.60;99.90;;;;;;2080873;28;20224;-68
2020/12/16 01:45:24;;;;;;;5.25;3.25;;;1.60;99.90;;;;;;2080756;28;20256;-67
2020/12/16 01:46:27;;;;;;;4.53;3.58;;;1.50;99.90;;;;;;2081340;28;20270;-67
2020/12/16 01:47:28;;;;;;;5.93;3.90;;;1.50;99.90;;;;;;2081275;28;20260;-68
2020/12/16 01:48:29;;;;;;;5.37;3.53;;;1.60;99.90;;;;;;2081201;28;20196;-67
2020/12/16 01:49:30;;;;;;;4.23;3.57;;;1.60;99.90;;;;;;2081228;28;20719;-68
2020/12/16 01:50:31;;;;;;;4.47;3.03;;;1.70;99.90;;;;;;2081285;28;20187;-67
2020/12/16 01:51:33;;;;;;;3.55;2.70;;;1.60;99.90;;;;;;2081147;28;20276;-68
2020/12/16 01:52:36;;;;;;;3.72;2.92;;;1.60;99.90;;;;;;2081022;28;20604;-69
2020/12/16 01:53:37;;;;;;;3.85;2.83;;;1.50;99.90;;;;;;2072732;28;20165;-70
2020/12/16 01:54:39;;;;;;;5.05;3.47;;;1.50;99.90;;;;;;2072788;28;20210;-67
2020/12/16 01:55:41;;;;;;;4.55;3.00;;;1.50;99.90;;;;;;2080545;28;20215;-70
2020/12/16 01:56:43;;;;;;;4.20;3.30;;;1.50;99.90;;;;;;2081422;28;20483;-69
2020/12/16 01:57:49;;;;;;;3.97;3.25;;;1.50;99.90;;;;;;2081116;28;20177;-67
2020/12/16 01:58:51;;;;;;;4.65;3.20;;;1.60;99.90;;;;;;2081190;28;20630;-67
2020/12/16 01:59:52;;;;;;;3.00;2.60;;;1.60;99.90;;;;;;2080573;28;20346;-68
2020/12/16 02:00:59;;;;;;;3.35;2.58;;;1.50;99.90;;;;;;2072419;28;20209;-68
2020/12/16 02:02:02;;;;;;;3.83;2.50;;;1.60;99.90;;;;;;2080607;28;20196;-68
2020/12/16 02:03:07;;;;;;;3.35;2.85;;;1.50;99.90;;;;;;2081261;28;20177;-68
2020/12/16 02:04:11;;;;;;;3.97;2.92;;;1.50;99.90;;;;;;2080415;28;20177;-68
2020/12/16 02:05:15;;;;;;;3.40;2.55;;;1.50;99.90;;;;;;2080583;28;20236;-68
2020/12/16 02:06:20;;;;;;;4.32;3.10;;;1.50;99.90;;;;;;2080602;28;20208;-68
2020/12/16 02:07:21;;;;;;;3.20;2.70;;;1.60;99.90;;;;;;2080747;28;20240;-68
2020/12/16 02:08:26;;;;;;;8.63;4.95;;;1.60;99.90;;;;;;2080586;28;20185;-68
2020/12/16 02:09:27;;;;;;;9.48;5.50;;;1.60;99.90;;;;;;2080616;28;20243;-68
2020/12/16 02:10:28;;;;;;;7.87;5.20;;;1.60;99.90;;;;;;2081107;28;20204;-68
2020/12/16 02:11:29;;;;;;;5.63;4.00;;;1.50;99.90;;;;;;2081020;28;20203;-68
2020/12/16 02:12:36;;;;;;;5.00;3.55;;;1.60;99.90;;;;;;2080983;28;20565;-68
2020/12/16 02:13:37;;;;;;;5.78;4.18;;;1.50;99.90;;;;;;2080541;28;20177;-68
2020/12/16 02:14:39;;;;;;;7.43;4.80;;;1.50;99.90;;;;;;2080368;28;20216;-67
2020/12/16 02:15:39;;;;;;;13.55;7.75;;;1.50;99.90;;;;;;2080565;28;20180;-68
2020/12/16 02:16:40;;;;;;;15.17;8.57;;;1.50;99.90;;;;;;2080609;28;20696;-68
2020/12/16 02:17:42;;;;;;;22.50;13.57;;;1.40;99.90;;;;;;2081261;28;20211;-68
2020/12/16 02:18:47;;;;;;;16.88;10.27;;;1.40;99.90;;;;;;2080470;28;20189;-68
2020/12/16 02:19:55;;;;;;;17.73;9.68;;;1.40;99.90;;;;;;2072660;28;20716;-68
2020/12/16 02:20:56;;;;;;;8.85;5.60;;;1.40;99.90;;;;;;2080433;28;20192;-69
2020/12/16 02:21:57;;;;;;;12.87;7.67;;;1.40;99.90;;;;;;2080389;28;20181;-68
2020/12/16 02:22:58;;;;;;;12.83;7.33;;;1.40;99.90;;;;;;2072254;28;20707;-68
2020/12/16 02:24:08;;;;;;;7.55;4.93;;;1.40;99.90;;;;;;2080671;28;20188;-68
2020/12/16 02:25:11;;;;;;;9.32;5.20;;;1.40;99.90;;;;;;2080139;28;20699;-68
2020/12/16 02:26:13;;;;;;;10.18;5.45;;;1.40;99.90;;;;;;2080248;28;20180;-68
2020/12/16 02:27:14;;;;;;;10.02;6.10;;;1.40;99.90;;;;;;2072348;28;20720;-68
2020/12/16 02:28:15;;;;;;;10.20;6.13;;;1.50;99.90;;;;;;2072665;28;20251;-68
2020/12/16 02:29:15;;;;;;;9.07;5.50;;;1.50;99.90;;;;;;2081256;28;20216;-68
2020/12/16 02:30:16;;;;;;;7.47;5.03;;;1.50;99.90;;;;;;2081190;28;20180;-69
2020/12/16 02:31:17;;;;;;;8.53;5.27;;;1.50;99.90;;;;;;2080758;28;20181;-68
2020/12/16 02:32:19;;;;;;;8.20;4.93;;;1.60;99.90;;;;;;2080423;28;20173;-69
2020/12/16 02:33:19;;;;;;;8.65;5.43;;;1.60;99.90;;;;;;2080509;28;20205;-68
2020/12/16 02:34:20;;;;;;;6.63;4.80;;;1.60;99.90;;;;;;2081173;28;20541;-68
2020/12/16 02:35:21;;;;;;;9.30;5.53;;;1.60;99.90;;;;;;2080838;28;20173;-68
2020/12/16 02:36:22;;;;;;;9.40;6.17;;;1.60;99.90;;;;;;2080176;28;20200;-69
2020/12/16 02:37:23;;;;;;;10.85;5.55;;;1.50;99.90;;;;;;2080339;28;20295;-69
2020/12/16 02:38:25;;;;;;;8.32;4.75;;;1.60;99.90;;;;;;2081387;28;20197;-69
2020/12/16 02:39:27;;;;;;;7.38;4.57;;;1.60;99.90;;;;;;2081607;28;20686;-71
2020/12/16 02:40:27;;;;;;;6.25;4.10;;;1.60;99.90;;;;;;2080514;28;20268;-69
2020/12/16 02:41:28;;;;;;;8.30;4.33;;;1.60;99.90;;;;;;2088128;28;20176;-68
2020/12/16 02:42:29;;;;;;;6.90;3.90;;;1.60;99.90;;;;;;2080440;28;20208;-68
2020/12/16 02:43:30;;;;;;;6.75;3.90;;;1.70;99.90;;;;;;2064098;28;20182;-68
2020/12/16 02:44:31;;;;;;;6.40;4.17;;;1.80;99.90;;;;;;2072196;28;20209;-69
2020/12/16 02:45:32;;;;;;;6.03;4.00;;;1.80;99.90;;;;;;2080764;28;20220;-68
2020/12/16 02:46:33;;;;;;;5.00;3.50;;;1.70;99.90;;;;;;2080901;28;20287;-68
2020/12/16 02:47:34;;;;;;;6.93;3.43;;;1.70;99.90;;;;;;2080739;28;20614;-68
2020/12/16 02:48:34;;;;;;;4.20;3.00;;;1.70;99.90;;;;;;2080896;28;20263;-69
2020/12/16 02:49:35;;;;;;;10.40;5.70;;;1.70;99.90;;;;;;2080953;28;20173;-68
2020/12/16 02:50:36;;;;;;;8.30;4.70;;;1.70;99.90;;;;;;2080978;28;20176;-68
2020/12/16 02:51:36;;;;;;;4.60;3.17;;;1.80;99.90;;;;;;2079904;28;20223;-68
2020/12/16 02:52:37;;;;;;;5.80;3.43;;;1.80;99.90;;;;;;2080142;28;20740;-68
2020/12/16 02:53:38;;;;;;;5.97;4.23;;;1.80;99.90;;;;;;2080705;28;20215;-68
2020/12/16 02:54:38;;;;;;;4.70;3.50;;;1.70;99.90;;;;;;2080979;28;20264;-69
2020/12/16 02:55:39;;;;;;;5.77;4.17;;;1.80;99.90;;;;;;2080905;28;20264;-68
2020/12/16 02:56:40;;;;;;;8.03;5.07;;;1.80;99.90;;;;;;2080963;28;20201;-68
2020/12/16 02:57:40;;;;;;;7.57;4.60;;;1.70;99.90;;;;;;2080940;28;20185;-69
2020/12/16 02:58:45;;;;;;;8.27;5.37;;;1.70;99.90;;;;;;2080974;28;20261;-68
2020/12/16 02:59:59;;;;;;;14.15;8.10;;;1.70;99.90;;;;;;2080917;28;20189;-68
2020/12/16 03:01:00;;;;;;;15.45;8.20;;;1.70;99.90;;;;;;2080695;28;20176;-69
2020/12/16 03:02:01;;;;;;;11.73;6.47;;;1.60;99.90;;;;;;2080284;28;20718;-69
2020/12/16 03:03:01;;;;;;;11.83;6.20;;;1.70;99.90;;;;;;2072343;28;20181;-68
2020/12/16 03:04:02;;;;;;;13.03;7.30;;;1.70;99.90;;;;;;2080187;28;20180;-68
2020/12/16 03:05:03;;;;;;;11.97;6.87;;;1.70;99.90;;;;;;2080839;28;20686;-68
2020/12/16 03:06:04;;;;;;;11.68;7.10;;;1.70;99.90;;;;;;2080801;28;20676;-68
2020/12/16 03:07:05;;;;;;;13.03;6.77;;;1.70;99.90;;;;;;2080987;28;20181;-69
2020/12/16 03:08:07;;;;;;;11.10;6.23;;;1.70;99.90;;;;;;2080878;28;20185;-68
2020/12/16 03:09:08;;;;;;;5.75;4.10;;;1.60;99.90;;;;;;2080707;28;20196;-68
2020/12/16 03:10:09;;;;;;;4.53;3.20;;;1.50;99.90;;;;;;2080840;28;20205;-68
2020/12/16 03:11:17;;;;;;;5.53;3.77;;;1.50;99.90;;;;;;2079971;28;20210;-68
2020/12/16 03:12:18;;;;;;;12.10;5.45;;;1.50;99.90;;;;;;2073200;28;20181;-68
2020/12/16 03:13:18;;;;;;;9.37;5.03;;;1.50;99.90;;;;;;2080440;28;20177;-68
2020/12/16 03:14:20;;;;;;;8.10;4.63;;;1.50;99.90;;;;;;2080902;28;20251;-68
2020/12/16 03:15:21;;;;;;;9.15;4.88;;;1.50;99.90;;;;;;2080896;28;20184;-69
2020/12/16 03:16:21;;;;;;;11.27;6.20;;;1.50;99.90;;;;;;2080879;28;20240;-68
2020/12/16 03:17:22;;;;;;;9.40;5.57;;;1.60;99.90;;;;;;2080990;28;20638;-68
2020/12/16 03:18:23;;;;;;;9.93;5.33;;;1.60;99.90;;;;;;2081064;28;20196;-69
2020/12/16 03:19:23;;;;;;;12.10;6.80;;;1.60;99.90;;;;;;2080986;28;20258;-69
2020/12/16 03:20:24;;;;;;;11.63;6.67;;;1.70;99.90;;;;;;2080955;28;20193;-69
2020/12/16 03:21:26;;;;;;;7.80;5.00;;;1.70;99.90;;;;;;2080733;28;20183;-68
2020/12/16 03:22:29;;;;;;;9.00;5.00;;;1.80;99.90;;;;;;2080437;28;20725;-69
2020/12/16 03:23:29;;;;;;;10.48;5.90;;;1.80;99.90;;;;;;2080396;28;20177;-69
2020/12/16 03:24:30;;;;;;;7.97;5.00;;;1.80;99.90;;;;;;2081134;28;20193;-68
2020/12/16 03:25:30;;;;;;;9.67;5.00;;;1.90;99.90;;;;;;2080582;28;20205;-69
2020/12/16 03:26:31;;;;;;;7.43;4.70;;;1.90;99.90;;;;;;2080784;28;20209;-69
2020/12/16 03:27:32;;;;;;;8.40;4.30;;;2.00;99.90;;;;;;2080921;28;20291;-68
2020/12/16 03:28:32;;;;;;;6.00;4.30;;;2.00;99.90;;;;;;2081005;28;20193;-69
2020/12/16 03:29:33;;;;;;;4.87;3.53;;;2.00;99.90;;;;;;2080771;28;20510;-69
2020/12/16 03:30:34;;;;;;;6.43;4.03;;;2.00;99.90;;;;;;2080922;28;20192;-69
2020/12/16 03:31:34;;;;;;;6.77;4.17;;;1.90;99.90;;;;;;2080572;28;20173;-68
2020/12/16 03:32:35;;;;;;;7.53;4.60;;;1.90;99.90;;;;;;2080892;28;20174;-69
2020/12/16 03:33:36;;;;;;;7.07;4.47;;;1.80;99.90;;;;;;2080750;28;20227;-68
2020/12/16 03:34:37;;;;;;;7.03;4.20;;;1.80;99.90;;;;;;2081023;28;20212;-68
2020/12/16 03:35:37;;;;;;;6.77;4.47;;;1.90;99.90;;;;;;2080849;28;20184;-68
2020/12/16 03:36:38;;;;;;;6.53;4.77;;;1.90;99.90;;;;;;2080791;28;20247;-69
2020/12/16 03:37:39;;;;;;;6.37;4.30;;;2.00;99.90;;;;;;2080871;28;20259;-69
2020/12/16 03:38:40;;;;;;;6.10;3.80;;;2.00;99.90;;;;;;2080890;28;20207;-69
2020/12/16 03:39:41;;;;;;;4.88;2.83;;;2.00;99.90;;;;;;2080841;28;20192;-68
2020/12/16 03:40:41;;;;;;;2.93;2.57;;;2.10;99.90;;;;;;2080809;28;20554;-69
2020/12/16 03:41:42;;;;;;;4.43;2.50;;;2.10;99.90;;;;;;2080913;28;20184;-69
2020/12/16 03:42:43;;;;;;;5.60;4.20;;;2.10;99.90;;;;;;2080976;28;20173;-69
2020/12/16 03:43:45;;;;;;;4.87;3.27;;;2.00;99.90;;;;;;2081069;28;20180;-69
2020/12/16 03:44:46;;;;;;;4.65;3.90;;;2.00;99.90;;;;;;2081030;28;20185;-68
2020/12/16 03:45:46;;;;;;;3.97;3.17;;;2.00;99.90;;;;;;2080915;28;20668;-68
2020/12/16 03:46:51;;;;;;;5.63;3.40;;;2.00;99.90;;;;;;2080777;28;20223;-69
2020/12/16 03:47:52;;;;;;;7.28;4.03;;;2.10;99.90;;;;;;2081342;28;20674;-68
2020/12/16 03:48:53;;;;;;;4.97;3.90;;;2.20;99.90;;;;;;2080695;28;20192;-68
2020/12/16 03:49:54;;;;;;;4.20;2.70;;;2.20;99.90;;;;;;2082267;28;20177;-69
2020/12/16 03:50:54;;;;;;;4.83;3.27;;;2.20;99.90;;;;;;2081218;28;20185;-68
2020/12/16 03:51:56;;;;;;;5.30;3.03;;;2.20;99.90;;;;;;2081609;28;20183;-68
2020/12/16 03:52:57;;;;;;;4.25;3.00;;;2.20;99.90;;;;;;2082040;28;20181;-68
2020/12/16 03:53:57;;;;;;;2.37;2.10;;;2.20;99.90;;;;;;2082404;28;20177;-68
2020/12/16 03:54:58;;;;;;;2.83;2.27;;;2.20;99.90;;;;;;2082182;28;20181;-68
2020/12/16 03:56:07;;;;;;;3.93;2.17;;;2.20;99.90;;;;;;2082205;28;20185;-68
2020/12/16 03:57:08;;;;;;;4.32;2.50;;;2.10;99.90;;;;;;2082166;28;20538;-68
2020/12/16 03:58:08;;;;;;;3.30;2.47;;;2.10;99.90;;;;;;2082140;28;20275;-68
2020/12/16 03:59:09;;;;;;;3.93;2.90;;;2.20;99.90;;;;;;2082150;28;20853;-69
2020/12/16 04:00:10;;;;;;;3.20;2.80;;;2.20;99.90;;;;;;2082325;28;20264;-69
2020/12/16 04:01:17;;;;;;;4.47;3.10;;;2.20;99.90;;;;;;2073253;28;20567;-69
2020/12/16 04:02:17;;;;;;;5.35;3.33;;;2.20;99.90;;;;;;2074516;28;20622;-68
2020/12/16 04:03:18;;;;;;;4.13;2.93;;;2.30;99.90;;;;;;2082178;28;20204;-69
2020/12/16 04:04:19;;;;;;;3.93;2.90;;;2.30;99.90;;;;;;2082098;28;20655;-69
2020/12/16 04:05:19;;;;;;;3.90;2.30;;;2.30;99.90;;;;;;2082016;28;20220;-69
2020/12/16 04:06:20;;;;;;;3.63;2.43;;;2.30;99.90;;;;;;2082118;28;20193;-68
2020/12/16 04:07:21;;;;;;;5.77;3.43;;;2.30;99.90;;;;;;2082138;28;20173;-69
2020/12/16 04:08:21;;;;;;;2.90;2.60;;;2.40;99.90;;;;;;2082210;28;20177;-68
2020/12/16 04:09:25;;;;;;;3.47;2.67;;;2.40;99.90;;;;;;2081338;28;20652;-68
2020/12/16 04:10:26;;;;;;;2.88;2.20;;;2.40;99.90;;;;;;2081557;28;20173;-69
2020/12/16 04:11:27;;;;;;;3.10;2.50;;;2.50;99.90;;;;;;2081961;28;20182;-69
2020/12/16 04:12:28;;;;;;;1.57;1.43;;;2.40;99.90;;;;;;2082075;28;20264;-68
2020/12/16 04:13:28;;;;;;;3.80;2.90;;;2.40;99.90;;;;;;2082188;28;20176;-68
2020/12/16 04:14:29;;;;;;;3.53;2.47;;;2.40;99.90;;;;;;2082174;28;20544;-68
2020/12/16 04:15:30;;;;;;;2.93;2.43;;;2.40;99.90;;;;;;2081367;28;20185;-68
2020/12/16 04:16:31;;;;;;;4.37;2.53;;;2.40;99.90;;;;;;2081393;28;20272;-69
2020/12/16 04:17:35;;;;;;;3.90;2.50;;;2.40;99.90;;;;;;2081540;28;20701;-69
2020/12/16 04:18:36;;;;;;;2.60;2.33;;;2.50;99.90;;;;;;2081424;28;20239;-69
2020/12/16 04:19:36;;;;;;;3.60;2.37;;;2.40;99.90;;;;;;2082084;28;20755;-69
2020/12/16 04:20:37;;;;;;;2.83;2.10;;;2.30;99.90;;;;;;2082048;28;20170;-68
2020/12/16 04:21:38;;;;;;;3.83;2.90;;;2.30;99.90;;;;;;2081744;28;20189;-68
2020/12/16 04:22:39;;;;;;;2.63;2.20;;;2.40;99.90;;;;;;2082023;28;20188;-69
2020/12/16 04:23:39;;;;;;;3.30;2.67;;;2.40;99.90;;;;;;2082278;28;20185;-68
2020/12/16 04:24:40;;;;;;;2.47;2.13;;;2.40;99.90;;;;;;2082036;28;20712;-68
2020/12/16 04:25:40;;;;;;;2.90;2.23;;;2.50;99.90;;;;;;2081891;28;20236;-68
2020/12/16 04:26:41;;;;;;;2.73;2.37;;;2.50;99.90;;;;;;2081675;28;20197;-69
2020/12/16 04:27:42;;;;;;;3.73;2.90;;;2.50;99.90;;;;;;2082006;28;20547;-68
2020/12/16 04:28:43;;;;;;;3.60;3.10;;;2.60;99.90;;;;;;2081985;28;20165;-68
2020/12/16 04:29:43;;;;;;;4.60;2.87;;;2.60;99.90;;;;;;2081976;28;20174;-69
2020/12/16 04:30:44;;;;;;;4.17;2.90;;;2.60;99.90;;;;;;2081865;28;20831;-69
2020/12/16 04:31:50;;;;;;;3.30;2.50;;;2.70;99.90;;;;;;2081348;28;20297;-70
2020/12/16 04:32:51;;;;;;;5.32;3.13;;;2.80;99.90;;;;;;2073761;28;20204;-68
2020/12/16 04:33:52;;;;;;;3.38;2.28;;;2.80;99.90;;;;;;2081395;28;20308;-69
2020/12/16 04:34:53;;;;;;;6.43;3.97;;;2.80;99.90;;;;;;2081927;28;20619;-69
2020/12/16 04:35:53;;;;;;;5.53;3.40;;;2.80;99.90;;;;;;2081996;28;20180;-69
2020/12/16 04:36:56;;;;;;;4.33;2.43;;;2.80;99.90;;;;;;2081957;28;20201;-68
2020/12/16 04:37:57;;;;;;;3.58;2.70;;;2.90;99.90;;;;;;2082023;28;20260;-69
2020/12/16 04:38:57;;;;;;;2.92;2.13;;;2.90;99.90;;;;;;2081760;28;20231;-69
2020/12/16 04:39:58;;;;;;;2.77;2.20;;;2.90;99.90;;;;;;2081988;28;20227;-68
2020/12/16 04:40:59;;;;;;;2.67;2.17;;;3.00;99.90;;;;;;2081694;28;20795;-69
2020/12/16 04:41:59;;;;;;;4.00;2.43;;;3.00;99.90;;;;;;2081947;28;20261;-69
2020/12/16 04:43:11;;;;;;;3.40;2.50;;;3.00;99.90;;;;;;2081803;28;20181;-69
2020/12/16 04:44:13;;;;;;;2.63;2.42;;;3.00;99.90;;;;;;2087495;28;20176;-69
2020/12/16 04:45:14;;;;;;;3.17;2.38;;;3.00;99.90;;;;;;2089306;28;20294;-69
2020/12/16 04:46:15;;;;;;;3.67;2.70;;;3.00;99.90;;;;;;2089555;28;20178;-68
2020/12/16 04:47:16;;;;;;;6.33;3.47;;;3.10;99.90;;;;;;2089617;28;20188;-68
2020/12/16 04:48:17;;;;;;;17.30;12.55;;;3.10;99.90;;;;;;2081500;28;20185;-68
2020/12/16 04:49:18;;;;;;;13.60;9.90;;;3.10;99.90;;;;;;2089719;28;20206;-68
2020/12/16 04:50:19;;;;;;;5.77;4.77;;;3.20;99.90;;;;;;2081234;28;20187;-68
2020/12/16 04:51:20;;;;;;;4.73;3.83;;;3.20;99.90;;;;;;2081085;28;20231;-68
2020/12/16 04:52:26;;;;;;;4.33;3.60;;;3.20;99.90;;;;;;2090209;28;20183;-69
2020/12/16 04:53:28;;;;;;;44.25;20.83;;;3.30;99.90;;;;;;2089535;28;20173;-70
2020/12/16 04:54:28;;;;;;;30.40;16.60;;;3.30;99.90;;;;;;2089534;28;20176;-69
2020/12/16 04:55:30;;;;;;;28.27;16.00;;;3.30;99.90;;;;;;2090045;28;20673;-69
2020/12/16 04:56:33;;;;;;;5.97;4.45;;;3.40;99.90;;;;;;2089396;28;20620;-68
2020/12/16 04:57:34;;;;;;;5.78;4.57;;;3.40;99.90;;;;;;2089303;28;20217;-69
2020/12/16 04:58:34;;;;;;;3.93;3.13;;;3.50;99.90;;;;;;2089456;28;20227;-68
2020/12/16 04:59:35;;;;;;;4.77;3.23;;;3.50;99.90;;;;;;2088457;28;20190;-68
2020/12/16 05:00:36;;;;;;;4.90;3.57;;;3.70;99.90;;;;;;2089561;28;20525;-69
2020/12/16 05:01:41;;;;;;;7.05;5.63;;;3.70;99.90;;;;;;2089180;28;20540;-69
2020/12/16 05:02:56;;;;;;;9.82;8.82;;;3.70;99.90;;;;;;2089397;28;20589;-69
2020/12/16 05:03:57;;;;;;;21.40;17.98;;;3.70;99.90;;;;;;2089694;28;20177;-69
2020/12/16 05:04:58;;;;;;;11.87;10.67;;;3.80;99.90;;;;;;2089276;28;20669;-69
2020/12/16 05:05:59;;;;;;;7.07;6.38;;;3.80;99.90;;;;;;2081133;28;20252;-68
2020/12/16 05:07:00;;;;;;;4.10;3.70;;;3.80;99.90;;;;;;2089272;28;20191;-69
2020/12/16 05:08:12;;;;;;;4.80;4.17;;;3.80;99.90;;;;;;2089903;28;20554;-68
2020/12/16 05:09:16;;;;;;;5.13;4.07;;;3.90;99.90;;;;;;2080968;28;20202;-71
2020/12/16 05:10:34;;;;;;;6.10;5.13;;;3.90;99.90;;;;;;2081563;28;20536;-68
2020/12/16 05:11:40;;;;;;;9.05;4.18;;;3.90;99.90;;;;;;2089889;28;20223;-68
2020/12/16 05:12:41;;;;;;;4.40;3.42;;;3.90;99.90;;;;;;2089592;28;20587;-68
2020/12/16 05:13:41;;;;;;;3.92;3.60;;;3.90;99.90;;;;;;2089999;28;20205;-68
2020/12/16 05:14:42;;;;;;;3.20;2.90;;;3.90;99.90;;;;;;2089843;28;20331;-69
2020/12/16 05:15:46;;;;;;;3.07;2.70;;;3.90;99.90;;;;;;2089957;28;20276;-68
2020/12/16 05:17:06;;;;;;;5.43;3.40;;;3.90;99.90;;;;;;2089076;28;20213;-68
2020/12/16 05:18:21;;;;;;;4.43;3.22;;;4.00;99.90;;;;;;2089412;28;20178;-68
2020/12/16 05:19:48;;;;;;;3.85;3.00;;;3.90;99.90;;;;;;2089401;28;20172;-69
2020/12/16 05:21:01;;;;;;;3.60;2.75;;;3.90;99.90;;;;;;2086302;28;20587;-69
2020/12/16 05:22:28;;;;;;;3.50;2.55;;;3.90;99.90;;;;;;2090006;28;20173;-68
2020/12/16 05:23:35;;;;;;;2.70;2.28;;;3.90;99.90;;;;;;2089815;28;20165;-69
2020/12/16 05:24:36;;;;;;;3.53;2.83;;;3.80;99.90;;;;;;2089672;28;20286;-69